Home > Products > Valid Products > TAF

000
FTUS44 KTSA 022320
TAFXNA
TAF
KXNA 022320Z 0300/0324 33006KT P6SM BKN035
     FM030700 00000KT P6SM SCT035
     FM031000 00000KT 2SM BR SCT003
      TEMPO 0310/0314 1/2SM FG VV003
     FM031400 VRB02KT 4SM BR SKC
     FM031600 34005KT P6SM SCT050=



000
FTUS44 KTSA 022320
TAFRVS
TAF
KRVS 022320Z 0300/0324 34004KT P6SM BKN045
     FM030200 00000KT P6SM FEW150
     FM031600 32005KT P6SM SCT050=



000
FTUS44 KTSA 022320
TAFTUL
TAF
KTUL 022320Z 0300/0324 34006KT P6SM BKN045
     FM030200 32003KT P6SM FEW150
     FM031600 33005KT P6SM SCT050=



000
FTUS44 KTSA 022320
TAFMLC
TAF
KMLC 022320Z 0300/0324 35006KT P6SM BKN045
     FM030200 36003KT P6SM FEW250
     FM031600 33005KT P6SM FEW050=



000
FTUS44 KTSA 022320
TAFFYV
TAF
KFYV 022320Z 0300/0324 33010KT P6SM BKN025
     FM030100 33006KT P6SM BKN035
     FM030700 00000KT P6SM SCT035
     FM031000 00000KT 2SM BR SCT003
      TEMPO 0310/0314 1/2SM FG VV003
     FM031400 VRB02KT 4SM BR SKC
     FM031600 34005KT P6SM SCT050=



000
FTUS44 KTSA 022320
TAFFSM
TAF
KFSM 022320Z 0300/0324 31009KT P6SM BKN040
     FM030400 28007KT P6SM BKN045
     FM030600 30004KT P6SM SCT045
      TEMPO 0310/0314 4SM BR
     FM031700 33005KT P6SM SCT050=



000
FTUS44 KTSA 021959 AAA
TAFXNA
TAF AMD
KXNA 021959Z 0220/0318 32008KT P6SM FEW024 OVC035
     FM030700 31003KT P6SM SCT035
     FM031600 35008KT P6SM SCT050=



000
FTUS44 KTSA 021959 AAA
TAFMLC
TAF AMD
KMLC 021959Z 0220/0318 34008KT P6SM SCT035 OVC040
     FM030000 35005KT P6SM BKN045
     FM030800 36003KT P6SM FEW250
     FM031600 33005KT P6SM FEW050=



000
FTUS44 KTSA 021959 AAA
TAFFSM
TAF AMD
KFSM 021959Z 0220/0318 31009KT P6SM SCT040 OVC060
     FM030400 28007KT P6SM BKN045
     FM031700 33005KT P6SM SCT050=



000
FTUS44 KTSA 021958 AAA
TAFTUL
TAF AMD
KTUL 021958Z 0220/0318 32011KT P6SM SCT040 OVC050
     FM022300 34009KT P6SM BKN045
     FM030800 32003KT P6SM FEW150
     FM031600 33005KT P6SM SCT050=



000
FTUS44 KTSA 021958 AAA
TAFRVS
TAF AMD
KRVS 021958Z 0220/0318 34006KT P6SM SCT035 BKN050
     FM022300 34004KT P6SM BKN045
     FM030800 00000KT P6SM FEW150
     FM031600 32005KT P6SM SCT050=



000
FTUS44 KTSA 021737
TAFFSM
TAF
KFSM 021737Z 0218/0318 34005KT P6SM SCT025 BKN035
      TEMPO 0218/0220 BKN025
     FM030400 28007KT P6SM BKN045
     FM031700 33005KT P6SM SCT050=



000
FTUS44 KTSA 021737
TAFMLC
TAF
KMLC 021737Z 0218/0318 34010KT P6SM SCT025 BKN035
      TEMPO 0218/0221 BKN025
     FM030000 35005KT P6SM BKN045
     FM030800 36003KT P6SM FEW250
     FM031600 33005KT P6SM FEW050=



000
FTUS44 KTSA 021737
TAFRVS
TAF
KRVS 021737Z 0218/0318 34006KT P6SM SCT025 BKN035
      TEMPO 0218/0220 BKN028
     FM022300 34004KT P6SM BKN045
     FM030800 00000KT P6SM FEW150
     FM031600 32005KT P6SM SCT050=



000
FTUS44 KTSA 021737
TAFFYV
TAF
KFYV 021737Z 0218/0318 33005KT P6SM SCT025 BKN035
      TEMPO 0218/0221 BKN025
     FM030700 00000KT P6SM SCT035
     FM031600 34005KT P6SM SCT050=



000
FTUS44 KTSA 021737
TAFXNA
TAF
KXNA 021737Z 0218/0318 33007KT P6SM SCT025 BKN035
      TEMPO 0218/0221 BKN025
     FM030700 31003KT P6SM SCT035
     FM031600 35008KT P6SM SCT050=



000
FTUS44 KTSA 021737
TAFTUL
TAF
KTUL 021737Z 0218/0318 33009KT P6SM SCT025 BKN035
      TEMPO 0218/0220 BKN028
     FM022300 34009KT P6SM BKN045
     FM030800 32003KT P6SM FEW150
     FM031600 33005KT P6SM SCT050=



000
FTUS44 KTSA 021737
TAFFSM
TAF
KFSM 021737Z 0218/0318 34005KT P6SM SCT025 BKN035
      TEMPO 0218/0220 BKN025
     FM030400 28007KT P6SM BKN045
     FM031700 33005KT P6SM SCT050=



000
FTUS44 KTSA 021737
TAFMLC
TAF
KMLC 021737Z 0218/0318 34010KT P6SM SCT025 BKN035
      TEMPO 0218/0221 BKN025
     FM030000 35005KT P6SM BKN045
     FM030800 36003KT P6SM FEW250
     FM031600 33005KT P6SM FEW050=



000
FTUS44 KTSA 021737
TAFFYV
TAF
KFYV 021737Z 0218/0318 33005KT P6SM SCT025 BKN035
      TEMPO 0218/0221 BKN025
     FM030700 00000KT P6SM SCT035
     FM031600 34005KT P6SM SCT050=



000
FTUS44 KTSA 021737
TAFRVS
TAF
KRVS 021737Z 0218/0318 34006KT P6SM SCT025 BKN035
      TEMPO 0218/0220 BKN028
     FM022300 34004KT P6SM BKN045
     FM030800 00000KT P6SM FEW150
     FM031600 32005KT P6SM SCT050=



000
FTUS44 KTSA 021737
TAFXNA
TAF
KXNA 021737Z 0218/0318 33007KT P6SM SCT025 BKN035
      TEMPO 0218/0221 BKN025
     FM030700 31003KT P6SM SCT035
     FM031600 35008KT P6SM SCT050=



000
FTUS44 KTSA 021737
TAFTUL
TAF
KTUL 021737Z 0218/0318 33009KT P6SM SCT025 BKN035
      TEMPO 0218/0220 BKN028
     FM022300 34009KT P6SM BKN045
     FM030800 32003KT P6SM FEW150
     FM031600 33005KT P6SM SCT050=



000
FTUS44 KTSA 021608 AAA
TAFFSM
TAF AMD
KFSM 021608Z 0216/0312 VRB05KT P6SM BKN025 BKN035
      TEMPO 0216/0218 BKN018
     FM021900 31007KT P6SM SCT025 BKN040
     FM030100 31004KT P6SM SCT040=



000
FTUS44 KTSA 021604 AAB
TAFMLC
TAF AMD
KMLC 021604Z 0216/0312 34010KT P6SM SCT015 BKN035
      TEMPO 0216/0217 BKN015
     FM021700 35011KT P6SM SCT015 SCT025 BKN035
      TEMPO 0217/0219 BKN025
     FM030100 36003KT P6SM SKC=



000
FTUS44 KTSA 021604 AAB
TAFMLC
TAF AMD
KMLC 021604Z 0216/0312 34010KT P6SM SCT015 BKN035
      TEMPO 0216/0217 BKN015
     FM021700 35011KT P6SM SCT015 SCT025 BKN035
      TEMPO 0217/0219 BKN025
     FM030100 36003KT P6SM SKC=



000
FTUS44 KTSA 021502 AAB
TAFXNA
TAF AMD
KXNA 021502Z 0215/0312 01007KT P6SM SCT015 BKN025
      TEMPO 0215/0217 BKN015
     FM021800 32008KT P6SM BKN035
     FM030100 33003KT P6SM SCT040=



000
FTUS44 KTSA 021502 AAB
TAFFYV
TAF AMD
KFYV 021502Z 0215/0312 34003KT P6SM BKN015
     FM021600 34008KT P6SM SCT015 BKN025
      TEMPO 0216/0218 BKN015
     FM021800 31008KT P6SM BKN035
     FM030100 00000KT P6SM SCT040=



000
FTUS44 KTSA 021422 AAA
TAFMLC
TAF AMD
KMLC 021422Z 0214/0312 35009KT P6SM SCT015 BKN035
      TEMPO 0214/0216 BKN015
     FM021600 35011KT P6SM BKN040
     FM030100 36003KT P6SM SKC=



000
FTUS44 KTSA 021403 AAB
TAFRVS
TAF AMD
KRVS 021403Z 0214/0312 34006KT P6SM SCT025 BKN035
      TEMPO 0214/0216 BKN025
     FM021600 34007KT P6SM BKN045
     FM030100 00000KT P6SM SKC=



000
FTUS44 KTSA 021403 AAB
TAFTUL
TAF AMD
KTUL 021403Z 0214/0312 33007KT P6SM SCT025 BKN035
      TEMPO 0214/0216 BKN022
     FM021600 35009KT P6SM BKN045
     FM030100 33003KT P6SM SKC=



000
FTUS44 KTSA 021320 AAA
TAFFYV
TAF AMD
KFYV 021320Z 0213/0312 32003KT P6SM SCT008 BKN015
     FM021500 31008KT P6SM BKN020
     FM021800 31008KT P6SM BKN035
     FM030100 00000KT P6SM SCT040=



000
FTUS44 KTSA 021320 AAA
TAFXNA
TAF AMD
KXNA 021320Z 0213/0312 01007KT P6SM SCT008 BKN015
     FM021500 35008KT P6SM BKN020
     FM021800 32008KT P6SM BKN035
     FM030100 33003KT P6SM SCT040=



000
FTUS44 KTSA 021315 AAA
TAFRVS
TAF AMD
KRVS 021315Z 0213/0312 33006KT P6SM SCT025 BKN035
      TEMPO 0213/0214 BKN025
     FM021600 34007KT P6SM BKN045
     FM030100 00000KT P6SM SKC=



000
FTUS44 KTSA 021308 AAA
TAFTUL
TAF AMD
KTUL 021308Z 0213/0312 33007KT P6SM SCT025 BKN035
     FM021600 35009KT P6SM BKN045
     FM030100 33003KT P6SM SKC=



000
FTUS44 KTSA 021126
TAFMLC
TAF
KMLC 021126Z 0212/0312 35009KT P6SM SCT035 BKN100
     FM021600 35011KT P6SM BKN040
     FM030100 36003KT P6SM SKC=



000
FTUS44 KTSA 021126
TAFRVS
TAF
KRVS 021126Z 0212/0312 34006KT P6SM BKN015
      TEMPO 0212/0216 SCT015 BKN035
     FM021700 34006KT P6SM BKN040
     FM030100 00000KT P6SM SKC=



000
FTUS44 KTSA 021126
TAFTUL
TAF
KTUL 021126Z 0212/0312 34009KT P6SM BKN015
      TEMPO 0212/0216 SCT015 BKN035
     FM021700 34009KT P6SM BKN040
     FM030100 33003KT P6SM SKC=



000
FTUS44 KTSA 021126
TAFFSM
TAF
KFSM 021126Z 0212/0312 30007KT P6SM SCT035 BKN120
     FM021600 30009KT P6SM BKN040
     FM030100 31004KT P6SM SCT040=



000
FTUS44 KTSA 021126
TAFFYV
TAF
KFYV 021126Z 0212/0312 32007KT P6SM SCT008 BKN020
      TEMPO 0212/0215 BKN008
     FM021500 31008KT P6SM BKN020
     FM021800 31008KT P6SM BKN035
     FM030100 00000KT P6SM SCT040=



000
FTUS44 KTSA 021126
TAFXNA
TAF
KXNA 021126Z 0212/0312 32007KT P6SM SCT008 BKN020
      TEMPO 0212/0215 BKN008
     FM021500 32008KT P6SM BKN020
     FM021800 32008KT P6SM BKN035
     FM030100 33003KT P6SM SCT040=



000
FTUS44 KTSA 020520
TAFTUL
TAF
KTUL 020520Z 0206/0306 33009KT P6SM VCSH BKN100
     FM021200 33006KT P6SM BKN100
     FM021500 34008KT P6SM OVC025
     FM022100 34009KT P6SM OVC050
     FM030300 33002KT P6SM FEW250=



000
FTUS44 KTSA 020520
TAFMLC
TAF
KMLC 020520Z 0206/0306 35008KT P6SM VCSH OVC110
      TEMPO 0206/0208 3SM -TSRA BKN030CB
     FM021800 35012KT P6SM BKN050
     FM030300 01003KT P6SM SKC=



000
FTUS44 KTSA 020520
TAFRVS
TAF
KRVS 020520Z 0206/0306 33006KT P6SM VCSH BKN100
     FM021200 33005KT P6SM BKN100
     FM021500 34007KT P6SM OVC025
     FM022100 34008KT P6SM OVC050
     FM030300 33002KT P6SM FEW250=



000
FTUS44 KTSA 020520
TAFXNA
TAF
KXNA 020520Z 0206/0306 33003KT P6SM VCSH OVC100
     FM021200 34003KT P6SM OVC050
     FM021500 32005KT P6SM OVC025
     FM021800 32008KT P6SM OVC050
     FM030300 27003KT P6SM BKN250=



000
FTUS44 KTSA 020520
TAFFYV
TAF
KFYV 020520Z 0206/0306 35003KT P6SM VCSH OVC100
     FM021200 34003KT P6SM OVC050
     FM021500 32005KT P6SM OVC025
     FM021800 32008KT P6SM OVC050
     FM030300 27003KT P6SM BKN250=



000
FTUS44 KTSA 020520
TAFFSM
TAF
KFSM 020520Z 0206/0306 31009KT P6SM VCSH OVC250
     FM021200 29010KT P6SM OVC100
     FM021500 35008KT P6SM OVC050
     FM021800 31010KT P6SM OVC050
     FM030300 33006KT P6SM FEW250=



000
FTUS44 KTSA 020520
TAFRVS
TAF
KRVS 020520Z 0206/0306 33006KT P6SM VCSH BKN100
     FM021200 33005KT P6SM BKN100
     FM021500 34007KT P6SM OVC025
     FM022100 34008KT P6SM OVC050
     FM030300 33002KT P6SM FEW250=



000
FTUS44 KTSA 020520
TAFXNA
TAF
KXNA 020520Z 0206/0306 33003KT P6SM VCSH OVC100
     FM021200 34003KT P6SM OVC050
     FM021500 32005KT P6SM OVC025
     FM021800 32008KT P6SM OVC050
     FM030300 27003KT P6SM BKN250=



000
FTUS44 KTSA 020520
TAFFYV
TAF
KFYV 020520Z 0206/0306 35003KT P6SM VCSH OVC100
     FM021200 34003KT P6SM OVC050
     FM021500 32005KT P6SM OVC025
     FM021800 32008KT P6SM OVC050
     FM030300 27003KT P6SM BKN250=



000
FTUS44 KTSA 020520
TAFTUL
TAF
KTUL 020520Z 0206/0306 33009KT P6SM VCSH BKN100
     FM021200 33006KT P6SM BKN100
     FM021500 34008KT P6SM OVC025
     FM022100 34009KT P6SM OVC050
     FM030300 33002KT P6SM FEW250=



000
FTUS44 KTSA 020520
TAFMLC
TAF
KMLC 020520Z 0206/0306 35008KT P6SM VCSH OVC110
      TEMPO 0206/0208 3SM -TSRA BKN030CB
     FM021800 35012KT P6SM BKN050
     FM030300 01003KT P6SM SKC=



000
FTUS44 KTSA 020520
TAFFSM
TAF
KFSM 020520Z 0206/0306 31009KT P6SM VCSH OVC250
     FM021200 29010KT P6SM OVC100
     FM021500 35008KT P6SM OVC050
     FM021800 31010KT P6SM OVC050
     FM030300 33006KT P6SM FEW250=



000
FTUS44 KTSA 012334
TAFMLC
TAF
KMLC 012334Z 0200/0224 36007KT P6SM FEW110
     FM020300 36007KT P6SM OVC100
     FM021400 34012KT P6SM OVC025
     FM021600 36013KT P6SM OVC050=



000
FTUS44 KTSA 012334
TAFFSM
TAF
KFSM 012334Z 0200/0224 34008KT P6SM SCT250
     FM021200 28004KT P6SM OVC050
     FM021500 30010KT P6SM OVC025
     FM021800 28011KT P6SM OVC050=



000
FTUS44 KTSA 012334
TAFFYV
TAF
KFYV 012334Z 0200/0224 34006KT P6SM OVC250
     FM020900 35003KT P6SM OVC050
     FM021200 15007KT P6SM OVC015
     FM021500 31005KT P6SM OVC025
     FM021800 31009KT P6SM OVC050=



000
FTUS44 KTSA 012334
TAFRVS
TAF
KRVS 012334Z 0200/0224 36011KT P6SM VCSH SCT050 BKN250
     FM020300 33007KT P6SM VCSH OVC100
     FM020900 35009KT P6SM OVC050
     FM021500 34008KT P6SM OVC025
     FM021800 34009KT P6SM OVC050=



000
FTUS44 KTSA 012334
TAFTUL
TAF
KTUL 012334Z 0200/0224 36011KT P6SM VCSH SCT050 BKN250
     FM020300 36007KT P6SM VCSH OVC100
     FM020900 35009KT P6SM OVC050
     FM021500 34008KT P6SM OVC025
     FM021800 34009KT P6SM OVC050=



000
FTUS44 KTSA 012334
TAFXNA
TAF
KXNA 012334Z 0200/0224 33004KT P6SM OVC250
     FM020900 35003KT P6SM OVC050
     FM021200 15007KT P6SM OVC015
     FM021500 31005KT P6SM OVC025
     FM021800 31009KT P6SM OVC050=



000
FTUS44 KTSA 012302 AAA
TAFRVS
TAF AMD
KRVS 012302Z 0123/0218 36007KT P6SM VCSH SCT050
     FM020800 35007KT P6SM BKN025=



000
FTUS44 KTSA 012302 AAA
TAFTUL
TAF AMD
KTUL 012302Z 0123/0218 36011KT P6SM VCSH BKN050 BKN250
     FM020800 34008KT P6SM BKN025=



000
FTUS44 KTSA 011737
TAFRVS
TAF
KRVS 011737Z 0118/0218 34007KT P6SM SCT035 SCT250
     FM012000 35007KT P6SM SCT025 BKN035
     FM012300 36005KT P6SM VCSH BKN025 BKN035 PROB30 0203/0206 -RA
      BKN025
     FM020800 35007KT P6SM BKN025=



000
FTUS44 KTSA 011737
TAFTUL
TAF
KTUL 011737Z 0118/0218 33010KT P6SM SCT035 SCT250
     FM012000 35008KT P6SM SCT025 BKN035
     FM012300 01005KT P6SM VCSH BKN025 BKN035 PROB30 0203/0206 -RA
      BKN025
     FM020800 34008KT P6SM BKN025=



000
FTUS44 KTSA 011737
TAFFSM
TAF
KFSM 011737Z 0118/0218 30010KT P6SM FEW180
     FM020200 33005KT P6SM BKN080 PROB30 0204/0208 -RA BKN035
     FM020800 34005KT P6SM BKN035 PROB30 0208/0212 6SM -RA BKN025
     FM021200 33006KT P6SM BKN025=



000
FTUS44 KTSA 011737
TAFXNA
TAF
KXNA 011737Z 0118/0218 28010KT P6SM FEW035 SCT250
     FM020100 33003KT P6SM SCT040 BKN110
     FM020300 34007KT P6SM SCT025 BKN040 PROB30 0203/0209 -RA BKN025
     FM020900 35007KT P6SM BKN020=



000
FTUS44 KTSA 011737
TAFMLC
TAF
KMLC 011737Z 0118/0218 35010KT P6SM FEW180
     FM020000 34005KT P6SM BKN040 BKN080 PROB30 0203/0206 -RA BKN035
     FM020600 35007KT P6SM VCSH BKN035 PROB30 0206/0210 6SM RA
      BKN025
     FM021200 34008KT P6SM BKN025=



000
FTUS44 KTSA 011737
TAFFYV
TAF
KFYV 011737Z 0118/0218 29008KT P6SM SCT250
     FM020100 34003KT P6SM SCT040 BKN110
     FM020300 33007KT P6SM SCT025 BKN040 PROB30 0203/0209 -RA BKN025
     FM020900 35006KT P6SM BKN020=



000
FTUS44 KTSA 011256 AAA
TAFFYV
TAF AMD
KFYV 011256Z 0113/0212 00000KT P6SM SCT250
     FM020000 34003KT P6SM SCT100 BKN250
     FM020600 35007KT P6SM BKN050 PROB30 0206/0212 6SM -RA BKN025=



000
FTUS44 KTSA 011140 CCA
TAFFYV
TAF COR
KFYV 011140Z 0112/0212 00000KT 5SM BR SKC
      TEMPO 0112/0113 1SM BR
     FM011300 29007KT P6SM SCT250
     FM020000 34003KT P6SM SCT100 BKN250
     FM020600 35007KT P6SM BKN050 PROB30 0206/0212 6SM -RA BKN025=



000
FTUS44 KTSA 011140 CCA
TAFFYV
TAF COR
KFYV 011140Z 0112/0212 00000KT 5SM BR SKC
      TEMPO 0112/0113 1SM BR
     FM011300 29007KT P6SM SCT250
     FM020000 34003KT P6SM SCT100 BKN250
     FM020600 35007KT P6SM BKN050 PROB30 0206/0212 6SM -RA BKN025=



000
FTUS44 KTSA 011120
TAFTUL
TAF
KTUL 011120Z 0112/0212 27004KT P6SM SKC
     FM011500 33007KT P6SM SCT080 SCT250
     FM011900 36005KT P6SM VCSH BKN050
     FM020000 34005KT P6SM VCSH BKN035 PROB30 0202/0208 6SM -RA
      BKN025
     FM020800 36008KT P6SM BKN025=



000
FTUS44 KTSA 011120
TAFFYV
TAF
KFYV 011120Z 0112/0212 00000KT P6SM SKC
     FM011500 29007KT P6SM SCT250
     FM020000 34003KT P6SM SCT100 BKN250
     FM020600 35007KT P6SM BKN050 PROB30 0206/0212 6SM -RA BKN025=



000
FTUS44 KTSA 011120
TAFXNA
TAF
KXNA 011120Z 0112/0212 00000KT P6SM SKC
     FM011500 29007KT P6SM SCT250
     FM020000 34003KT P6SM SCT100 BKN250
     FM020600 35007KT P6SM BKN050 PROB30 0206/0212 6SM -RA BKN025=



000
FTUS44 KTSA 011120
TAFFSM
TAF
KFSM 011120Z 0112/0212 00000KT P6SM SKC
     FM011700 31010KT P6SM SCT250
     FM020100 33005KT P6SM BKN080 PROB30 0204/0208 6SM -RA BKN035
     FM020800 34005KT P6SM BKN035 PROB30 0208/0212 6SM -TSRA
      BKN025CB=



000
FTUS44 KTSA 011120
TAFRVS
TAF
KRVS 011120Z 0112/0212 00000KT P6SM SKC
     FM011500 33007KT P6SM SCT080 SCT250
     FM011900 36005KT P6SM VCSH BKN050
     FM020000 34005KT P6SM VCSH BKN035 PROB30 0202/0208 6SM -RA
      BKN025
     FM020800 35007KT P6SM BKN025=



000
FTUS44 KTSA 011120
TAFMLC
TAF
KMLC 011120Z 0112/0212 06003KT P6SM SKC
     FM011500 34007KT P6SM SCT250
     FM012000 36005KT P6SM BKN080
     FM020000 34005KT P6SM VCSH BKN035 PROB30 0202/0206 6SM -RA
      BKN035
     FM020600 35007KT P6SM BKN035 PROB30 0206/0210 6SM -TSRA
      BKN025CB=



000
FTUS44 KTSA 011120
TAFFSM
TAF
KFSM 011120Z 0112/0212 00000KT P6SM SKC
     FM011700 31010KT P6SM SCT250
     FM020100 33005KT P6SM BKN080 PROB30 0204/0208 6SM -RA BKN035
     FM020800 34005KT P6SM BKN035 PROB30 0208/0212 6SM -TSRA
      BKN025CB=



000
FTUS44 KTSA 010923 AAD
TAFFYV
TAF AMD
KFYV 010923Z 0109/0206 00000KT P6SM SKC
      TEMPO 0109/0112 3SM BR SCT005
     FM011400 29007KT P6SM SCT250
     FM020000 34003KT P6SM BKN250=



000
FTUS44 KTSA 010808 AAA
TAFXNA
TAF AMD
KXNA 010808Z 0108/0206 32006KT P6SM SKC
      TEMPO 0109/0113 3SM BR SCT005
     FM011400 30008KT P6SM SCT250
     FM020000 33005KT P6SM BKN250=



000
FTUS44 KTSA 010807 AAC
TAFFYV
TAF AMD
KFYV 010807Z 0108/0206 00000KT P6SM SKC
      TEMPO 0108/0112 3SM BR BKN005
     FM011400 29007KT P6SM SCT250
     FM020000 34003KT P6SM BKN250=



000
FTUS44 KTSA 010650 AAB
TAFFYV
TAF AMD
KFYV 010650Z 0107/0206 14003KT P6SM FEW001
     FM010800 00000KT 3SM BR SCT005
      TEMPO 0108/0112 1SM BR BKN005
     FM011400 29007KT P6SM SCT250
     FM020000 34003KT P6SM BKN250=



000
FTUS44 KTSA 010650 AAB
TAFFYV
TAF AMD
KFYV 010650Z 0107/0206 14003KT P6SM FEW001
     FM010800 00000KT 3SM BR SCT005
      TEMPO 0108/0112 1SM BR BKN005
     FM011400 29007KT P6SM SCT250
     FM020000 34003KT P6SM BKN250=



000
FTUS44 KTSA 010625 AAA
TAFFYV
TAF AMD
KFYV 010625Z 0106/0206 19004KT 1SM BR VV001
     FM010800 00000KT 3SM BR SCT005
      TEMPO 0108/0112 1SM BR BKN005
     FM011400 29007KT P6SM SCT250
     FM020000 34003KT P6SM BKN250=



000
FTUS44 KTSA 010520
TAFTUL
TAF
KTUL 010520Z 0106/0206 30005KT P6SM SKC
     FM011700 34008KT P6SM SCT250
     FM020000 36005KT P6SM BKN050=



000
FTUS44 KTSA 010520
TAFMLC
TAF
KMLC 010520Z 0106/0206 VRB03KT P6SM SKC
     FM011500 35012KT P6SM SCT250
     FM020000 01005KT P6SM BKN100=



000
FTUS44 KTSA 010520
TAFRVS
TAF
KRVS 010520Z 0106/0206 VRB03KT P6SM SKC
     FM011700 33007KT P6SM SCT250
     FM020000 36004KT P6SM BKN050=



000
FTUS44 KTSA 010520
TAFFSM
TAF
KFSM 010520Z 0106/0206 32005KT P6SM SKC
     FM011700 31010KT P6SM SCT250
     FM020100 35005KT P6SM BKN250=



000
FTUS44 KTSA 010520
TAFXNA
TAF
KXNA 010520Z 0106/0206 25005KT P6SM SKC
     FM010800 VRB03KT 3SM BR SCT005
      TEMPO 0109/0113 1SM BR BKN005
     FM011400 30008KT P6SM SCT250
     FM020000 33005KT P6SM BKN250=



000
FTUS44 KTSA 010520
TAFFYV
TAF
KFYV 010520Z 0106/0206 00000KT P6SM SKC
     FM010800 00000KT 3SM BR SCT005
      TEMPO 0109/0113 1SM BR BKN005
     FM011400 29007KT P6SM SCT250
     FM020000 34003KT P6SM BKN250=



000
FTUS44 KTSA 302330
TAFFYV
TAF
KFYV 302330Z 0100/0124 29005KT P6SM BKN035
     FM010800 00000KT 3SM BR SCT005
      TEMPO 0109/0113 1SM BR BKN005
     FM011400 29007KT P6SM SCT250=



000
FTUS44 KTSA 302330
TAFMLC
TAF
KMLC 302330Z 0100/0124 34005KT P6SM SCT035
     FM011500 35012KT P6SM SCT250=



000
FTUS44 KTSA 302330
TAFTUL
TAF
KTUL 302330Z 0100/0124 31007KT P6SM SKC
     FM012100 34008KT P6SM BKN050=



000
FTUS44 KTSA 302330
TAFFSM
TAF
KFSM 302330Z 0100/0124 28006KT P6SM SCT035
     FM011600 31010KT P6SM SCT250=



000
FTUS44 KTSA 302330
TAFRVS
TAF
KRVS 302330Z 0100/0124 34004KT P6SM SKC
     FM012100 34007KT P6SM BKN050=



000
FTUS44 KTSA 302330
TAFXNA
TAF
KXNA 302330Z 0100/0124 25005KT P6SM BKN035
      TEMPO 0100/0102 BKN025
     FM010800 00000KT 3SM BR SCT005
      TEMPO 0109/0113 1/2SM FG BKN005
     FM011400 30008KT P6SM SCT250=



000
FTUS44 KTSA 302215 AAB
TAFFYV
TAF AMD
KFYV 302215Z 3022/0118 24005KT P6SM BKN025
      TEMPO 3022/3024 BKN015
     FM010300 31005KT P6SM SCT250=



000
FTUS44 KTSA 302215 AAB
TAFFYV
TAF AMD
KFYV 302215Z 3022/0118 24005KT P6SM BKN025
      TEMPO 3022/3024 BKN015
     FM010300 31005KT P6SM SCT250=



000
FTUS44 KTSA 302215 AAB
TAFMLC
TAF AMD
KMLC 302215Z 3022/0118 33005KT P6SM SCT025
      TEMPO 3022/3024 BKN025
     FM010200 35005KT P6SM FEW250=



000
FTUS44 KTSA 302214 AAB
TAFXNA
TAF AMD
KXNA 302214Z 3022/0118 28007KT P6SM BKN025
     FM010100 31005KT P6SM SCT250=



000
FTUS44 KTSA 301857 AAA
TAFXNA
TAF AMD
KXNA 301857Z 3019/0118 26010KT P6SM SCT008 BKN015
     FM302000 28009KT P6SM BKN015 BKN025
     FM302200 29007KT P6SM SCT025
     FM010100 31005KT P6SM SCT250=



000
FTUS44 KTSA 301857 AAA
TAFMLC
TAF AMD
KMLC 301857Z 3019/0118 31007KT P6SM BKN012
     FM302200 33007KT P6SM SCT025
     FM010200 35005KT P6SM FEW250=



000
FTUS44 KTSA 301857 AAA
TAFFYV
TAF AMD
KFYV 301857Z 3019/0118 28011KT P6SM SCT015 BKN035
     FM302200 29008KT P6SM SCT035
     FM010300 31005KT P6SM SCT250=



000
FTUS44 KTSA 301740
TAFRVS
TAF
KRVS 301740Z 3018/0118 28009KT P6SM FEW025
     FM302000 30007KT P6SM SKC
     FM010300 34006KT P6SM SCT250=



000
FTUS44 KTSA 301740
TAFFYV
TAF
KFYV 301740Z 3018/0118 22011KT P6SM BKN015 BKN025
     FM302000 26008KT P6SM SCT025 BKN035
     FM010300 31005KT P6SM SCT250=



000
FTUS44 KTSA 301740
TAFMLC
TAF
KMLC 301740Z 3018/0118 31007KT P6SM BKN007
     FM302000 32009KT P6SM BKN008 BKN012
     FM302200 33007KT P6SM SCT025
     FM010200 35005KT P6SM FEW250=



000
FTUS44 KTSA 301740
TAFXNA
TAF
KXNA 301740Z 3018/0118 26010KT P6SM BKN008 BKN015
     FM302000 28009KT P6SM BKN015 BKN025
     FM302200 29007KT P6SM SCT025
     FM010100 31005KT P6SM SCT250=



000
FTUS44 KTSA 301740
TAFFSM
TAF
KFSM 301740Z 3018/0118 24009KT P6SM BKN035
     FM302100 27007KT P6SM SCT035
     FM010100 29007KT P6SM FEW250=



000
FTUS44 KTSA 301740
TAFTUL
TAF
KTUL 301740Z 3018/0118 30010KT P6SM SCT018
     FM301900 31011KT P6SM FEW025
     FM302100 31009KT P6SM SKC
     FM010300 33007KT P6SM SCT250=



000
FTUS44 KTSA 301627 AAA
TAFFSM
TAF AMD
KFSM 301627Z 3016/0112 25007KT P6SM BKN035
     FM301800 27007KT P6SM SCT025 BKN250
     FM010000 29003KT P6SM SKC=



000
FTUS44 KTSA 301626 AAB
TAFXNA
TAF AMD
KXNA 301626Z 3016/0112 21009KT P6SM BKN008 BKN015
     FM301900 25007KT P6SM SCT025 BKN250
     FM010000 26003KT P6SM SKC=



000
FTUS44 KTSA 301626 AAB
TAFXNA
TAF AMD
KXNA 301626Z 3016/0112 21009KT P6SM BKN008 BKN015
     FM301900 25007KT P6SM SCT025 BKN250
     FM010000 26003KT P6SM SKC=



000
FTUS44 KTSA 301625 AAB
TAFMLC
TAF AMD
KMLC 301625Z 3016/0112 29010KT P6SM BKN007
     FM301800 29009KT P6SM BKN015
     FM302000 32007KT P6SM SCT025 SCT250
     FM010000 33003KT P6SM SKC=



000
FTUS44 KTSA 301323 AAA
TAFXNA
TAF AMD
KXNA 301323Z 3013/0112 21007KT P6SM BKN008
      TEMPO 3014/3016 BKN012
     FM301600 21007KT P6SM BKN015
     FM301800 25007KT P6SM SCT025 BKN250
     FM010000 26003KT P6SM SKC=



000
FTUS44 KTSA 301321 AAA
TAFMLC
TAF AMD
KMLC 301321Z 3013/0112 32006KT 3SM BR OVC005
      TEMPO 3013/3014 1SM BR BKN003
     FM301600 29010KT P6SM BKN009
     FM301800 29009KT P6SM BKN015
     FM302000 32007KT P6SM SCT025 SCT250
     FM010000 33003KT P6SM SKC=



000
FTUS44 KTSA 301120
TAFFSM
TAF
KFSM 301120Z 3012/0112 27003KT P6SM BKN025
      TEMPO 3012/3016 OVC015
     FM301600 27007KT P6SM BKN015
     FM301800 27007KT P6SM SCT025 BKN250
     FM010000 29003KT P6SM SKC=



000
FTUS44 KTSA 301120
TAFMLC
TAF
KMLC 301120Z 3012/0112 29003KT 5SM BR OVC004
      TEMPO 3012/3014 P6SM NSW BKN007
     FM301500 29010KT P6SM BKN009
     FM301600 29009KT P6SM BKN015
     FM301800 32007KT P6SM SCT025 SCT250
     FM010000 33003KT P6SM SKC=



000
FTUS44 KTSA 301120
TAFTUL
TAF
KTUL 301120Z 3012/0112 27013KT P6SM OVC015
      TEMPO 3012/3015 OVC009
     FM301500 29009KT P6SM BKN015
     FM301800 29007KT P6SM SCT025 BKN250
     FM010000 31007KT P6SM SKC=



000
FTUS44 KTSA 301120
TAFMLC
TAF
KMLC 301120Z 3012/0112 29003KT 5SM BR OVC004
      TEMPO 3012/3014 P6SM NSW BKN007
     FM301500 29010KT P6SM BKN009
     FM301600 29009KT P6SM BKN015
     FM301800 32007KT P6SM SCT025 SCT250
     FM010000 33003KT P6SM SKC=



000
FTUS44 KTSA 301120
TAFFYV
TAF
KFYV 301120Z 3012/0112 21008KT P6SM SCT015 BKN100
      TEMPO 3012/3016 OVC015
     FM301600 21007KT P6SM BKN015
     FM301800 25007KT P6SM SCT025 BKN250
     FM010000 25003KT P6SM SKC=



000
FTUS44 KTSA 301120
TAFRVS
TAF
KRVS 301120Z 3012/0112 VRB05KT P6SM BKN009
      TEMPO 3012/3015 BKN015
     FM301500 29009KT P6SM BKN015
     FM301800 29007KT P6SM SCT025 BKN250
     FM010000 31005KT P6SM SKC=



000
FTUS44 KTSA 301120
TAFRVS
TAF
KRVS 301120Z 3012/0112 VRB05KT P6SM BKN009
      TEMPO 3012/3015 BKN015
     FM301500 29009KT P6SM BKN015
     FM301800 29007KT P6SM SCT025 BKN250
     FM010000 31005KT P6SM SKC=



000
FTUS44 KTSA 301120
TAFFYV
TAF
KFYV 301120Z 3012/0112 21008KT P6SM SCT015 BKN100
      TEMPO 3012/3016 OVC015
     FM301600 21007KT P6SM BKN015
     FM301800 25007KT P6SM SCT025 BKN250
     FM010000 25003KT P6SM SKC=



000
FTUS44 KTSA 301120
TAFXNA
TAF
KXNA 301120Z 3012/0112 22007KT P6SM SCT050 BKN100
      TEMPO 3012/3016 OVC015
     FM301600 21007KT P6SM BKN015
     FM301800 25007KT P6SM SCT025 BKN250
     FM010000 26003KT P6SM SKC=



000
FTUS44 KTSA 301120
TAFFSM
TAF
KFSM 301120Z 3012/0112 27003KT P6SM BKN025
      TEMPO 3012/3016 OVC015
     FM301600 27007KT P6SM BKN015
     FM301800 27007KT P6SM SCT025 BKN250
     FM010000 29003KT P6SM SKC=



000
FTUS44 KTSA 301120
TAFTUL
TAF
KTUL 301120Z 3012/0112 27013KT P6SM OVC015
      TEMPO 3012/3015 OVC009
     FM301500 29009KT P6SM BKN015
     FM301800 29007KT P6SM SCT025 BKN250
     FM010000 31007KT P6SM SKC=



000
FTUS44 KTSA 301120
TAFXNA
TAF
KXNA 301120Z 3012/0112 22007KT P6SM SCT050 BKN100
      TEMPO 3012/3016 OVC015
     FM301600 21007KT P6SM BKN015
     FM301800 25007KT P6SM SCT025 BKN250
     FM010000 26003KT P6SM SKC=



000
FTUS44 KTSA 301050 AAE
TAFMLC
TAF AMD
KMLC 301050Z 3011/0106 29003KT 5SM BR OVC004
      TEMPO 3011/3012 3SM BR BKN008
     FM301200 VRB03KT 4SM BR BKN008
      TEMPO 3012/3014 1SM BR BKN002
     FM301500 29010KT P6SM BKN015
     FM301800 32007KT P6SM SCT250
     FM010000 33003KT P6SM SKC=



000
FTUS44 KTSA 301013 AAA
TAFXNA
TAF AMD
KXNA 301013Z 3010/0106 18005KT P6SM BKN040
      TEMPO 3010/3013 5SM BR OVC015
     FM301600 25007KT P6SM BKN015
     FM301900 25007KT P6SM SCT025 BKN250
     FM010000 27003KT P6SM SKC=



000
FTUS44 KTSA 301013 AAA
TAFFSM
TAF AMD
KFSM 301013Z 3010/0106 29003KT P6SM OVC050
      TEMPO 3010/3013 5SM BR OVC015
     FM301600 25007KT P6SM BKN015
     FM301900 27007KT P6SM SCT025 BKN250
     FM010000 27003KT P6SM SKC=



000
FTUS44 KTSA 301013 AAA
TAFFSM
TAF AMD
KFSM 301013Z 3010/0106 29003KT P6SM OVC050
      TEMPO 3010/3013 5SM BR OVC015
     FM301600 25007KT P6SM BKN015
     FM301900 27007KT P6SM SCT025 BKN250
     FM010000 27003KT P6SM SKC=



000
FTUS44 KTSA 301013 AAA
TAFXNA
TAF AMD
KXNA 301013Z 3010/0106 18005KT P6SM BKN040
      TEMPO 3010/3013 5SM BR OVC015
     FM301600 25007KT P6SM BKN015
     FM301900 25007KT P6SM SCT025 BKN250
     FM010000 27003KT P6SM SKC=



000
FTUS44 KTSA 301012 AAB
TAFFYV
TAF AMD
KFYV 301012Z 3010/0106 21008KT P6SM SCT050 BKN250
      TEMPO 3010/3013 5SM BR OVC015
     FM301600 21007KT P6SM BKN015
     FM301900 25007KT P6SM SCT025 BKN250
     FM010000 25003KT P6SM SKC=



000
FTUS44 KTSA 301012 AAB
TAFFYV
TAF AMD
KFYV 301012Z 3010/0106 21008KT P6SM SCT050 BKN250
      TEMPO 3010/3013 5SM BR OVC015
     FM301600 21007KT P6SM BKN015
     FM301900 25007KT P6SM SCT025 BKN250
     FM010000 25003KT P6SM SKC=



000
FTUS44 KTSA 300847 CCB
TAFMLC
TAF COR
KMLC 300847Z 3009/0106 18003KT 4SM BR BKN020
      TEMPO 3009/3012 3SM BR BKN008
     FM301200 VRB03KT 4SM BR BKN008
      TEMPO 3012/3014 1SM BR BKN002
     FM301500 29010KT P6SM BKN015
     FM301800 32007KT P6SM SCT250
     FM010000 33003KT P6SM SKC=



000
FTUS44 KTSA 300846 AAD
TAFMLC
TAF AMD
KMLC 300846Z 3009/0106 18003KT 4SM BR BKN001
      TEMPO 3009/3012 3SM BR BKN008
     FM301200 VRB03KT 4SM BR BKN008
      TEMPO 3012/3014 1SM BR BKN002
     FM301500 29010KT P6SM BKN015
     FM301800 32007KT P6SM SCT250
     FM010000 33003KT P6SM SKC=



000
FTUS44 KTSA 300744 AAA
TAFFYV
TAF AMD
KFYV 300744Z 3008/0106 11014G25KT P6SM SCT015 BKN100
      TEMPO 3010/3013 1SM BR OVC007
     FM301600 21007KT P6SM BKN015
     FM301900 25007KT P6SM SCT025 BKN250
     FM010000 25003KT P6SM SKC=



000
FTUS44 KTSA 300743 AAC
TAFMLC
TAF AMD
KMLC 300743Z 3008/0106 18003KT P6SM BKN002
      TEMPO 3008/3010 3SM BR BKN008
     FM301000 VRB03KT 4SM BR BKN008
      TEMPO 3010/3014 1SM BR BKN002
     FM301500 29010KT P6SM BKN015
     FM301800 32007KT P6SM SCT250
     FM010000 33003KT P6SM SKC=



000
FTUS44 KTSA 300743 AAC
TAFMLC
TAF AMD
KMLC 300743Z 3008/0106 18003KT P6SM BKN002
      TEMPO 3008/3010 3SM BR BKN008
     FM301000 VRB03KT 4SM BR BKN008
      TEMPO 3010/3014 1SM BR BKN002
     FM301500 29010KT P6SM BKN015
     FM301800 32007KT P6SM SCT250
     FM010000 33003KT P6SM SKC=



000
FTUS44 KTSA 300714 AAB
TAFMLC
TAF AMD
KMLC 300714Z 3007/0106 18003KT 6SM BR SCT002 BKN020
      TEMPO 3007/3009 1SM BR BKN015
     FM300900 VRB03KT 4SM BR BKN015
      TEMPO 3010/3014 1SM BR BKN002
     FM301500 29010KT P6SM BKN015
     FM301800 32007KT P6SM SCT250
     FM010000 33003KT P6SM SKC=



000
FTUS44 KTSA 300649 CCA
TAFMLC
TAF COR
KMLC 300649Z 3007/0106 18003KT 6SM BR SCT002 BKN020
      TEMPO 3007/3008 2SM BR BKN002
     FM300800 VRB03KT 4SM BR BKN015
      TEMPO 3010/3014 1SM BR BKN002
     FM301500 29010KT P6SM BKN015
     FM301800 32007KT P6SM SCT250
     FM010000 33003KT P6SM SKC=



000
FTUS44 KTSA 300648 AAA
TAFMLC
TAF AMD
KMLC 300648Z 3007/0106 18003KT 6SM BR BKN020
      TEMPO 3007/3008 2SM BR BKN015
     FM300800 VRB03KT 4SM BR BKN015
      TEMPO 3010/3014 1SM BR BKN007
     FM301500 29010KT P6SM BKN015
     FM301800 32007KT P6SM SCT250
     FM010000 33003KT P6SM SKC=



000
FTUS44 KTSA 300528
TAFMLC
TAF
KMLC 300528Z 3006/0106 18003KT P6SM BKN015
     FM300800 VRB03KT 4SM BR BKN015
      TEMPO 3010/3014 1SM BR BKN007
     FM301500 29010KT P6SM BKN015
     FM301800 32007KT P6SM SCT250
     FM010000 33003KT P6SM SKC=



000
FTUS44 KTSA 300528
TAFRVS
TAF
KRVS 300528Z 3006/0106 19005KT P6SM BKN025
     FM300800 28007KT P6SM OVC012
      TEMPO 3010/3013 3SM BR OVC007
     FM301500 29009KT P6SM BKN015
     FM301800 29007KT P6SM SCT015 BKN250
     FM010000 31007KT P6SM SKC=



000
FTUS44 KTSA 300528
TAFXNA
TAF
KXNA 300528Z 3006/0106 12005KT P6SM BKN015
     FM300800 12006KT 4SM BR OVC007
      TEMPO 3009/3013 1SM BR OVC003
     FM301600 25007KT P6SM BKN015
     FM301900 25007KT P6SM SCT025 BKN250
     FM010000 27003KT P6SM SKC=



000
FTUS44 KTSA 300528
TAFTUL
TAF
KTUL 300528Z 3006/0106 15007KT P6SM BKN025
     FM300800 28007KT P6SM OVC012
      TEMPO 3010/3013 3SM BR OVC007
     FM301500 29009KT P6SM BKN015
     FM301800 29007KT P6SM SCT015 BKN250
     FM010000 31007KT P6SM SKC=



000
FTUS44 KTSA 300528
TAFFYV
TAF
KFYV 300528Z 3006/0106 13010KT P6SM FEW025 OVC100
      TEMPO 3006/3008 BKN015
     FM300800 16006KT 4SM BR OVC012
      TEMPO 3009/3013 1SM BR OVC007
     FM301600 21007KT P6SM BKN015
     FM301900 25007KT P6SM SCT025 BKN250
     FM010000 25003KT P6SM SKC=



000
FTUS44 KTSA 300528
TAFFSM
TAF
KFSM 300528Z 3006/0106 09007KT P6SM VCTS BKN015CB
      TEMPO 3006/3007 3SM -TSRA BR BKN012CB
     FM301000 VRB03KT 4SM BR OVC008
     FM301600 25007KT P6SM BKN015
     FM301900 27007KT P6SM SCT025 BKN250
     FM010000 27003KT P6SM SKC=



000
FTUS44 KTSA 300310 AAA
TAFFSM
TAF AMD
KFSM 300310Z 3003/3024 09013G27KT 6SM RA VCTS FEW040 BKN080CB
      TEMPO 3003/3006 3SM -TSRA BKN008CB
     FM300600 07010KT P6SM BKN012
     FM301000 VRB03KT 4SM BR OVC008
     FM301600 25007KT P6SM BKN015
     FM301900 27007KT P6SM SCT025 BKN250=



000
FTUS44 KTSA 300310 AAA
TAFFSM
TAF AMD
KFSM 300310Z 3003/3024 09013G27KT 6SM RA VCTS FEW040 BKN080CB
      TEMPO 3003/3006 3SM -TSRA BKN008CB
     FM300600 07010KT P6SM BKN012
     FM301000 VRB03KT 4SM BR OVC008
     FM301600 25007KT P6SM BKN015
     FM301900 27007KT P6SM SCT025 BKN250=



000
FTUS44 KTSA 300117 AAB
TAFTUL
TAF AMD
KTUL 300117Z 3001/3024 09014G30KT P6SM VCTS FEW009 BKN050CB
     FM300300 02007KT P6SM OVC015
     FM300900 28007KT P6SM OVC015
     FM301700 29009KT P6SM SCT025 SCT250=



000
FTUS44 KTSA 300117 AAB
TAFTUL
TAF AMD
KTUL 300117Z 3001/3024 09014G30KT P6SM VCTS FEW009 BKN050CB
     FM300300 02007KT P6SM OVC015
     FM300900 28007KT P6SM OVC015
     FM301700 29009KT P6SM SCT025 SCT250=



    US Dept of Commerce
    National Oceanic and Atmospheric Administration
    National Weather Service
    1325 East West Highway
    Silver Spring, MD 20910
    Page Author: NWS Internet Services Team
Disclaimer
Information Quality
Credits
Glossary
Privacy Policy
Freedom of Information Act (FOIA)
About Us
Career Opportunities